createdAt,value
2018-06-18T00:00:27.909Z,6.40
2018-06-18T00:02:57.159Z,5.83
2018-06-18T00:05:26.536Z,6.00
2018-06-18T00:07:55.035Z,5.97
2018-06-18T00:10:23.470Z,6.00
2018-06-18T00:12:51.888Z,5.90
2018-06-18T00:15:20.302Z,5.77
2018-06-18T00:17:48.754Z,6.20
2018-06-18T00:20:17.199Z,5.73
2018-06-18T00:22:45.642Z,5.50
2018-06-18T00:25:16.896Z,6.33
2018-06-18T00:27:45.322Z,6.00
2018-06-18T00:30:13.747Z,5.77
2018-06-18T00:32:42.159Z,5.73
2018-06-18T00:35:10.598Z,5.57
2018-06-18T00:37:39.039Z,5.97
2018-06-18T00:40:07.446Z,5.50
2018-06-18T00:42:35.850Z,5.77
2018-06-18T00:45:04.270Z,4.90
2018-06-18T00:47:32.713Z,5.67
2018-06-18T00:50:01.120Z,5.27
2018-06-18T00:52:29.566Z,5.47
2018-06-18T00:54:57.998Z,6.07
2018-06-18T00:57:26.415Z,6.20
2018-06-18T00:59:54.843Z,5.50
2018-06-18T01:02:23.256Z,5.30
2018-06-18T01:04:51.681Z,5.77
2018-06-18T01:07:20.107Z,5.87
2018-06-18T01:09:48.514Z,5.73
2018-06-18T01:12:16.927Z,5.67
2018-06-18T01:14:45.349Z,5.47
2018-06-18T01:17:13.770Z,5.50
2018-06-18T01:19:42.194Z,5.90
2018-06-18T01:22:10.670Z,5.23
2018-06-18T01:24:44.020Z,5.00
2018-06-18T01:27:12.450Z,5.17
2018-06-18T01:29:40.901Z,5.23
2018-06-18T01:32:09.562Z,5.67
2018-06-18T01:34:38.045Z,5.40
2018-06-18T01:37:06.466Z,4.73
2018-06-18T01:39:34.917Z,5.40
2018-06-18T01:42:03.362Z,5.30
2018-06-18T01:44:31.806Z,5.50
2018-06-18T01:47:00.282Z,5.20
2018-06-18T01:49:28.715Z,5.73
2018-06-18T01:51:57.146Z,4.90
2018-06-18T01:54:25.586Z,5.63
2018-06-18T01:56:54.027Z,4.90
2018-06-18T01:59:22.133Z,4.83
2018-06-18T02:01:50.544Z,4.97
2018-06-18T02:04:18.979Z,5.67
2018-06-18T02:06:47.411Z,5.57
2018-06-18T02:09:15.858Z,5.43
2018-06-18T02:11:44.270Z,5.20
2018-06-18T02:14:12.708Z,5.90
2018-06-18T02:16:41.116Z,5.30
2018-06-18T02:19:10.125Z,5.97
2018-06-18T02:21:39.055Z,5.60
2018-06-18T02:24:07.483Z,5.77
2018-06-18T02:26:35.964Z,6.17
2018-06-18T02:29:09.625Z,6.03
2018-06-18T02:31:43.196Z,5.97
2018-06-18T02:34:16.883Z,5.77
2018-06-18T02:38:53.588Z,5.40
2018-06-18T02:41:22.051Z,5.63
2018-06-18T02:43:50.470Z,5.53
2018-06-18T02:46:18.886Z,5.80
2018-06-18T02:48:47.306Z,6.30
2018-06-18T02:51:15.714Z,6.47
2018-06-18T02:53:44.127Z,6.03
2018-06-18T02:56:12.538Z,5.97
2018-06-18T02:58:40.954Z,5.37
2018-06-18T03:01:09.363Z,5.60
2018-06-18T03:03:37.780Z,5.93
2018-06-18T03:06:06.202Z,6.37
2018-06-18T03:08:34.647Z,7.17
2018-06-18T03:11:03.089Z,6.57
2018-06-18T03:13:31.531Z,7.00
2018-06-18T03:15:59.994Z,7.47
2018-06-18T03:18:33.746Z,7.13
2018-06-18T03:21:07.424Z,6.43
2018-06-18T03:23:41.030Z,7.37
2018-06-18T03:26:15.074Z,7.80
2018-06-18T03:28:48.926Z,7.40
2018-06-18T03:31:17.354Z,7.43
2018-06-18T03:33:45.829Z,8.73
2018-06-18T03:36:15.463Z,7.77
2018-06-18T03:38:43.923Z,7.33
2018-06-18T03:41:12.354Z,8.10
2018-06-18T03:43:45.054Z,8.43
2018-06-18T03:46:13.478Z,8.73
2018-06-18T03:48:41.923Z,7.20
2018-06-18T03:51:10.337Z,7.30
2018-06-18T03:53:38.767Z,7.27
2018-06-18T03:56:07.252Z,6.67
2018-06-18T03:58:35.677Z,6.07
2018-06-18T04:02:15.386Z,7.23
2018-06-18T04:04:54.880Z,6.03
2018-06-18T04:07:28.996Z,6.03
2018-06-18T04:10:02.632Z,6.77
2018-06-18T04:12:31.046Z,6.70
2018-06-18T04:15:00.430Z,6.10
2018-06-18T04:17:28.850Z,6.53
2018-06-18T04:19:57.286Z,6.37
2018-06-18T04:22:25.699Z,6.23
2018-06-18T04:24:54.134Z,6.17
2018-06-18T04:27:22.601Z,6.00
2018-06-18T04:29:51.015Z,6.50
2018-06-18T04:32:19.464Z,5.00
2018-06-18T04:34:53.380Z,5.20
2018-06-18T04:37:21.798Z,5.50
2018-06-18T04:39:50.242Z,5.30
2018-06-18T04:42:23.813Z,5.47
2018-06-18T04:44:58.077Z,5.37
2018-06-18T04:47:31.798Z,4.93
2018-06-18T04:50:05.580Z,5.23
2018-06-18T04:52:33.991Z,5.33
2018-06-18T04:55:02.441Z,5.60
2018-06-18T04:57:30.865Z,5.90
2018-06-18T05:00:09.630Z,5.87
2018-06-18T05:02:38.075Z,5.70
2018-06-18T05:05:06.522Z,5.33
2018-06-18T05:07:35.016Z,5.63
2018-06-18T05:10:16.082Z,5.93
2018-06-18T05:12:44.509Z,5.70
2018-06-18T05:15:12.972Z,6.10
2018-06-18T05:17:41.406Z,6.43
2018-06-18T05:20:09.841Z,6.60
2018-06-18T05:22:38.307Z,5.83
2018-06-18T05:25:06.958Z,5.83
2018-06-18T05:27:35.586Z,6.37
2018-06-18T05:30:08.270Z,6.03
2018-06-18T05:32:36.703Z,5.80
2018-06-18T05:35:06.415Z,6.03
2018-06-18T05:37:57.596Z,6.60
2018-06-18T05:40:26.013Z,5.77
2018-06-18T05:42:54.450Z,5.60
2018-06-18T05:45:24.212Z,5.90
2018-06-18T05:47:52.610Z,5.97
2018-06-18T05:50:21.266Z,6.30
2018-06-18T05:52:49.678Z,5.40
2018-06-18T05:55:18.103Z,6.03
2018-06-18T05:57:46.533Z,6.50
2018-06-18T06:00:15.318Z,5.97
2018-06-18T06:02:43.750Z,5.23
2018-06-18T06:05:12.202Z,5.60
2018-06-18T06:07:40.626Z,6.60
2018-06-18T06:10:09.070Z,6.30
2018-06-18T06:12:37.499Z,6.07
2018-06-18T06:15:06.119Z,6.23
2018-06-18T06:17:34.570Z,6.73
2018-06-18T06:20:02.987Z,6.20
2018-06-18T06:22:31.455Z,6.50
2018-06-18T06:24:59.871Z,6.50
2018-06-18T06:27:28.322Z,7.20
2018-06-18T06:29:56.747Z,7.33
2018-06-18T06:32:25.210Z,6.87
2018-06-18T06:34:58.115Z,6.53
2018-06-18T06:37:26.979Z,6.80
2018-06-18T06:39:55.482Z,6.43
2018-06-18T06:42:23.914Z,6.40
2018-06-18T06:44:52.339Z,6.53
2018-06-18T06:47:20.772Z,6.83
2018-06-18T06:49:49.197Z,6.80
2018-06-18T06:52:17.626Z,6.73
2018-06-18T06:54:46.038Z,6.73
2018-06-18T06:57:14.490Z,6.37
2018-06-18T06:59:42.942Z,6.50
2018-06-18T07:02:11.357Z,6.83
2018-06-18T07:04:39.822Z,7.07
2018-06-18T07:07:08.262Z,6.80
2018-06-18T07:09:36.722Z,6.40
2018-06-18T07:12:05.146Z,7.43
2018-06-18T07:14:33.606Z,6.70
2018-06-18T07:17:02.066Z,6.80
2018-06-18T07:19:30.551Z,8.40
2018-06-18T07:21:58.991Z,7.17
2018-06-18T07:24:27.445Z,6.57
2018-06-18T07:26:55.875Z,5.83
2018-06-18T07:29:24.338Z,6.23
2018-06-18T07:31:52.768Z,5.90
2018-06-18T07:34:21.237Z,5.90
2018-06-18T07:36:49.721Z,5.90
2018-06-18T07:39:18.177Z,5.90
2018-06-18T07:41:46.612Z,5.57
2018-06-18T07:44:15.075Z,5.77
2018-06-18T07:46:43.517Z,5.90
2018-06-18T07:49:11.975Z,5.63
2018-06-18T07:51:40.435Z,5.77
2018-06-18T07:54:08.870Z,5.63
2018-06-18T07:56:37.286Z,5.53
2018-06-18T07:59:05.719Z,5.83
2018-06-18T08:01:34.158Z,5.17
2018-06-18T08:04:02.605Z,5.97
2018-06-18T08:06:31.037Z,5.80
2018-06-18T08:08:59.520Z,5.33
2018-06-18T08:11:28.112Z,5.50
2018-06-18T08:13:56.563Z,5.37
2018-06-18T08:16:24.977Z,5.87
2018-06-18T08:18:53.098Z,5.50
2018-06-18T08:21:21.538Z,5.37
2018-06-18T08:23:50.079Z,5.47
2018-06-18T08:26:18.414Z,4.93
2018-06-18T08:28:46.859Z,5.10
2018-06-18T08:31:15.304Z,4.93
2018-06-18T08:33:43.750Z,5.27
2018-06-18T08:36:12.168Z,5.70
2018-06-18T08:38:40.587Z,5.07
2018-06-18T08:41:09.030Z,5.10
2018-06-18T08:43:37.463Z,5.77
2018-06-18T08:46:05.910Z,4.90
2018-06-18T08:48:39.564Z,5.93
2018-06-18T08:51:13.159Z,5.62
2018-06-18T08:53:47.355Z,5.05
2018-06-18T08:56:21.146Z,4.58
2018-06-18T08:58:54.847Z,4.85
2018-06-18T09:01:27.082Z,5.30
2018-06-18T09:04:00.927Z,5.25
2018-06-18T09:06:29.370Z,4.78
2018-06-18T09:08:58.531Z,5.70
2018-06-18T09:11:27.730Z,4.95
2018-06-18T09:13:57.279Z,4.70
2018-06-18T09:16:25.686Z,4.90
2018-06-18T09:18:54.321Z,5.47
2018-06-18T09:21:22.765Z,5.25
2018-06-18T09:23:51.193Z,4.90
2018-06-18T09:26:19.636Z,4.85
2018-06-18T09:28:48.082Z,5.92
2018-06-18T09:31:16.546Z,5.17
2018-06-18T09:33:45.376Z,5.17
2018-06-18T09:36:14.055Z,5.53
2018-06-18T09:38:42.468Z,5.40
2018-06-18T09:41:10.891Z,5.83
2018-06-18T09:43:39.322Z,4.90
2018-06-18T09:46:07.747Z,5.53
2018-06-18T09:50:45.520Z,5.53
2018-06-18T09:53:19.176Z,4.97
2018-06-18T09:55:52.996Z,4.70
2018-06-18T09:58:26.567Z,5.10
2018-06-18T10:01:04.618Z,4.73
2018-06-18T10:03:33.614Z,5.20
2018-06-18T10:06:02.878Z,5.27
2018-06-18T10:08:31.435Z,4.57
2018-06-18T10:10:59.790Z,4.80
2018-06-18T10:13:28.229Z,4.70
2018-06-18T10:15:56.716Z,5.07
2018-06-18T10:18:25.171Z,4.53
2018-06-18T10:20:53.590Z,4.60
2018-06-18T10:23:22.039Z,4.03
2018-06-18T10:25:50.455Z,4.97
2018-06-18T10:28:18.918Z,4.60
2018-06-18T10:30:47.357Z,5.00
2018-06-18T10:33:20.938Z,4.93
2018-06-18T10:35:54.604Z,4.40
2018-06-18T10:38:28.350Z,4.97
2018-06-18T10:41:02.221Z,4.77
2018-06-18T10:43:32.232Z,4.60
2018-06-18T10:46:00.662Z,4.47
2018-06-18T10:48:29.103Z,4.37
2018-06-18T10:50:57.535Z,4.93
2018-06-18T10:53:25.962Z,5.40
2018-06-18T10:55:54.589Z,4.83
2018-06-18T10:58:23.082Z,4.80
2018-06-18T11:01:00.980Z,5.67
2018-06-18T11:03:29.357Z,5.27
2018-06-18T11:06:03.063Z,5.67
2018-06-18T11:08:31.489Z,7.13
2018-06-18T11:10:59.975Z,7.30
2018-06-18T11:13:28.486Z,6.50
2018-06-18T11:15:57.050Z,6.70
2018-06-18T11:18:30.695Z,6.57
2018-06-18T11:21:04.384Z,6.93
2018-06-18T11:23:38.630Z,5.73
2018-06-18T11:26:12.319Z,6.60
2018-06-18T11:28:40.850Z,5.80
2018-06-18T11:31:09.273Z,7.03
2018-06-18T11:33:38.228Z,5.87
2018-06-18T11:36:06.758Z,6.03
2018-06-18T11:38:35.195Z,5.30
2018-06-18T11:41:03.669Z,5.30
2018-06-18T11:43:32.169Z,5.10
2018-06-18T11:46:00.601Z,5.33
2018-06-18T11:48:29.055Z,4.83
2018-06-18T11:50:57.490Z,4.93
2018-06-18T11:53:25.904Z,4.97
2018-06-18T11:55:55.395Z,5.10
2018-06-18T11:58:28.965Z,5.30
2018-06-18T12:01:02.694Z,5.07
2018-06-18T12:03:37.087Z,4.50
2018-06-18T12:06:10.702Z,4.17
2018-06-18T12:08:44.324Z,4.23
2018-06-18T12:11:12.823Z,4.13
2018-06-18T12:13:42.506Z,4.30
2018-06-18T12:16:10.922Z,4.23
2018-06-18T12:18:39.338Z,3.80
2018-06-18T12:21:07.851Z,4.20
2018-06-18T12:23:36.333Z,4.10
2018-06-18T12:26:04.825Z,3.97
2018-06-18T12:28:33.467Z,3.60
2018-06-18T12:31:01.950Z,4.33
2018-06-18T12:33:30.450Z,4.10
2018-06-18T12:35:58.996Z,4.00
2018-06-18T12:38:27.489Z,3.33
2018-06-18T12:40:55.998Z,2.43
2018-06-18T12:43:26.504Z,2.30
2018-06-18T12:46:00.745Z,3.00
2018-06-18T12:48:34.549Z,2.67
2018-06-18T12:51:08.159Z,2.07
2018-06-18T12:53:42.043Z,2.27
2018-06-18T12:56:15.618Z,2.37
2018-06-18T12:58:44.096Z,2.33
2018-06-18T13:01:15.145Z,2.70
2018-06-18T13:03:48.615Z,3.07
2018-06-18T13:06:17.039Z,2.50
2018-06-18T13:08:45.547Z,2.33
2018-06-18T13:11:14.004Z,3.00
2018-06-18T13:13:42.448Z,3.10
2018-06-18T13:16:10.878Z,2.60
2018-06-18T13:18:39.287Z,2.30
2018-06-18T13:21:07.733Z,2.40
2018-06-18T13:23:36.195Z,3.40
2018-06-18T13:26:04.655Z,3.10
2018-06-18T13:28:33.101Z,3.63
2018-06-18T13:31:01.674Z,3.83
2018-06-18T13:33:30.115Z,4.40
2018-06-18T13:35:58.538Z,5.00
2018-06-18T13:40:34.057Z,4.80
2018-06-18T13:43:07.902Z,5.93
2018-06-18T13:45:44.323Z,6.90
2018-06-18T13:48:18.046Z,7.30
2018-06-18T13:50:46.466Z,7.43
2018-06-18T13:53:14.914Z,6.87
2018-06-18T13:55:43.327Z,6.33
2018-06-18T13:58:11.740Z,6.53
2018-06-18T14:00:40.297Z,5.97
2018-06-18T14:03:08.741Z,5.70
2018-06-18T14:05:37.247Z,6.47
2018-06-18T14:08:05.698Z,5.83
2018-06-18T14:10:34.131Z,6.40
2018-06-18T14:13:02.566Z,6.00
2018-06-18T14:15:30.999Z,6.33
2018-06-18T14:17:59.453Z,6.50
2018-06-18T14:20:28.249Z,5.97
2018-06-18T14:22:56.389Z,6.50
2018-06-18T14:25:24.850Z,6.90
2018-06-18T14:27:53.273Z,6.90
2018-06-18T14:30:27.040Z,6.93
2018-06-18T14:33:00.766Z,6.87
2018-06-18T14:37:38.720Z,6.70
2018-06-18T14:40:16.187Z,6.57
2018-06-18T14:42:44.804Z,6.03
2018-06-18T14:45:13.400Z,6.37
2018-06-18T14:47:42.207Z,6.17
2018-06-18T14:50:10.626Z,6.10
2018-06-18T14:52:39.066Z,6.27
2018-06-18T14:55:08.700Z,6.13
2018-06-18T14:57:37.136Z,6.67
2018-06-18T15:00:10.744Z,6.87
2018-06-18T15:02:40.017Z,6.90
2018-06-18T15:05:09.165Z,6.90
2018-06-18T15:07:37.562Z,7.00
2018-06-18T15:10:05.966Z,6.97
2018-06-18T15:12:43.683Z,6.80
2018-06-18T15:15:17.503Z,7.20
2018-06-18T15:17:45.942Z,7.97
2018-06-18T15:20:14.339Z,7.43
2018-06-18T15:22:48.878Z,7.77
2018-06-18T15:25:17.337Z,6.97
2018-06-18T15:27:45.763Z,7.13
2018-06-18T15:30:14.204Z,7.40
2018-06-18T15:32:42.638Z,8.00
2018-06-18T15:35:11.051Z,7.77
2018-06-18T15:37:39.474Z,7.70
2018-06-18T15:40:07.908Z,7.40
2018-06-18T15:42:36.323Z,7.27
2018-06-18T15:45:04.759Z,6.77
2018-06-18T15:47:33.762Z,7.40
2018-06-18T15:50:02.174Z,6.93
2018-06-18T15:52:30.614Z,7.27
2018-06-18T15:54:59.032Z,7.80
2018-06-18T15:57:27.487Z,7.03
2018-06-18T15:59:55.912Z,6.87
2018-06-18T16:02:24.402Z,7.17
2018-06-18T16:04:52.835Z,7.20
2018-06-18T16:07:21.310Z,7.20
2018-06-18T16:09:49.722Z,7.00
2018-06-18T16:12:18.166Z,7.80
2018-06-18T16:14:46.571Z,6.87
2018-06-18T16:17:15.001Z,7.50
2018-06-18T16:19:43.618Z,7.73
2018-06-18T16:22:12.042Z,7.97
2018-06-18T16:24:40.483Z,8.00
2018-06-18T16:27:08.902Z,7.77
2018-06-18T16:29:37.330Z,7.97
2018-06-18T16:32:05.870Z,8.50
2018-06-18T16:34:34.315Z,8.20
2018-06-18T16:37:02.718Z,8.73
2018-06-18T16:39:31.195Z,7.90
2018-06-18T16:41:59.682Z,8.53
2018-06-18T16:44:28.715Z,8.37
2018-06-18T16:46:57.134Z,8.73
2018-06-18T16:49:25.584Z,9.10
2018-06-18T16:51:54.019Z,9.03
2018-06-18T16:54:22.455Z,8.90
2018-06-18T16:56:50.908Z,9.20
2018-06-18T16:59:19.375Z,9.30
2018-06-18T17:01:47.827Z,9.70
2018-06-18T17:04:16.282Z,10.87
2018-06-18T17:06:44.711Z,10.33
2018-06-18T17:09:13.212Z,11.20
2018-06-18T17:11:41.631Z,10.13
2018-06-18T17:14:10.085Z,10.60
2018-06-18T17:16:38.584Z,10.83
2018-06-18T17:19:07.018Z,11.00
2018-06-18T17:21:35.422Z,10.40
2018-06-18T17:24:03.864Z,10.63
2018-06-18T17:26:32.279Z,10.20
2018-06-18T17:29:00.710Z,11.23
2018-06-18T17:31:29.148Z,11.03
2018-06-18T17:33:57.594Z,10.80
2018-06-18T17:36:26.007Z,11.17
2018-06-18T17:38:54.113Z,11.27
2018-06-18T17:41:22.543Z,10.70
2018-06-18T17:43:50.990Z,10.47
2018-06-18T17:46:19.472Z,10.93
2018-06-18T17:48:47.907Z,11.20
2018-06-18T17:51:16.328Z,9.87
2018-06-18T17:53:44.758Z,10.37
2018-06-18T17:56:13.216Z,10.80
2018-06-18T17:58:41.677Z,10.17
2018-06-18T18:01:10.207Z,9.80
2018-06-18T18:03:38.663Z,10.17
2018-06-18T18:06:07.078Z,9.93
2018-06-18T18:08:35.513Z,9.63
2018-06-18T18:11:04.023Z,10.03
2018-06-18T18:13:32.522Z,10.13
2018-06-18T18:16:00.902Z,9.43
2018-06-18T18:18:29.646Z,9.30
2018-06-18T18:20:58.098Z,10.83
2018-06-18T18:23:26.596Z,9.93
2018-06-18T18:25:55.078Z,10.87
2018-06-18T18:28:23.554Z,10.93
2018-06-18T18:30:52.185Z,10.10
2018-06-18T18:33:20.620Z,10.13
2018-06-18T18:35:49.093Z,10.67
2018-06-18T18:38:17.554Z,10.00
2018-06-18T18:40:45.694Z,9.67
2018-06-18T18:43:14.114Z,9.80
2018-06-18T18:45:42.522Z,9.87
2018-06-18T18:48:10.932Z,10.23
2018-06-18T18:50:39.363Z,9.90
2018-06-18T18:53:07.814Z,10.03
2018-06-18T18:55:52.006Z,8.93
2018-06-18T18:58:31.648Z,9.43
2018-06-18T19:01:00.699Z,9.07
2018-06-18T19:03:30.116Z,9.40
2018-06-18T19:05:59.195Z,9.23
2018-06-18T19:08:29.479Z,9.30
2018-06-18T19:10:59.171Z,8.57
2018-06-18T19:13:30.821Z,10.53
2018-06-18T19:15:59.520Z,10.30
2018-06-18T19:18:27.963Z,11.43
2018-06-18T19:20:59.773Z,11.60
2018-06-18T19:23:28.351Z,10.63
2018-06-18T19:25:56.762Z,9.90
2018-06-18T19:28:25.199Z,9.13
2018-06-18T19:30:58.372Z,10.20
2018-06-18T19:33:31.078Z,9.70
2018-06-18T19:35:59.496Z,9.63
2018-06-18T19:38:27.967Z,9.73
2018-06-18T19:40:57.031Z,10.30
2018-06-18T19:43:25.470Z,11.37
2018-06-18T19:45:55.007Z,10.97
2018-06-18T19:48:28.571Z,11.53
2018-06-18T19:50:58.111Z,11.17
2018-06-18T19:53:26.627Z,11.00
2018-06-18T19:55:55.042Z,11.80
2018-06-18T19:58:23.514Z,11.23
2018-06-18T20:00:55.131Z,12.07
2018-06-18T20:03:23.675Z,13.00
2018-06-18T20:05:53.722Z,12.60
2018-06-18T20:08:25.131Z,13.43
2018-06-18T20:10:54.447Z,13.33
2018-06-18T20:13:22.886Z,13.37
2018-06-18T20:15:51.372Z,15.40
2018-06-18T20:18:19.794Z,14.40
2018-06-18T20:20:48.235Z,13.93
2018-06-18T20:23:20.715Z,14.40
2018-06-18T20:26:00.770Z,14.63
2018-06-18T20:28:29.212Z,14.53
2018-06-18T20:30:58.886Z,13.17
2018-06-18T20:33:27.419Z,13.00
2018-06-18T20:35:59.237Z,13.20
2018-06-18T20:38:27.683Z,13.10
2018-06-18T20:40:56.091Z,13.17
2018-06-18T20:43:26.873Z,12.80
2018-06-18T20:45:56.008Z,12.80
2018-06-18T20:48:24.417Z,14.50
2018-06-18T20:50:52.847Z,15.17
2018-06-18T20:53:21.262Z,18.27
2018-06-18T20:55:49.727Z,17.77
2018-06-18T20:58:18.155Z,17.63
2018-06-18T21:00:46.655Z,17.97
2018-06-18T21:03:15.182Z,17.03
2018-06-18T21:05:43.645Z,14.73
2018-06-18T21:08:12.058Z,14.83
2018-06-18T21:10:40.535Z,13.93
2018-06-18T21:13:08.948Z,13.83
2018-06-18T21:15:37.420Z,13.80
2018-06-18T21:18:06.141Z,13.93
2018-06-18T21:20:34.593Z,13.67
2018-06-18T21:23:03.004Z,12.87
2018-06-18T21:25:31.451Z,11.43
2018-06-18T21:27:59.678Z,11.70
2018-06-18T21:30:28.114Z,11.43
2018-06-18T21:32:56.544Z,10.47
2018-06-18T21:35:24.983Z,9.03
2018-06-18T21:37:53.391Z,10.03
2018-06-18T21:40:21.832Z,8.87
2018-06-18T21:42:50.254Z,9.20
2018-06-18T21:45:21.538Z,8.63
2018-06-18T21:47:49.946Z,9.43
2018-06-18T21:50:18.627Z,9.00
2018-06-18T21:52:47.070Z,9.57
2018-06-18T21:55:15.476Z,9.50
2018-06-18T21:57:43.918Z,9.03
2018-06-18T22:00:18.753Z,9.43
2018-06-18T22:02:47.210Z,9.27
2018-06-18T22:05:15.621Z,9.67
2018-06-18T22:07:44.606Z,9.80
2018-06-18T22:10:13.596Z,10.37
2018-06-18T22:12:42.207Z,9.80
2018-06-18T22:15:11.217Z,9.43
2018-06-18T22:17:39.633Z,9.17
2018-06-18T22:20:08.073Z,10.03
2018-06-18T22:22:36.606Z,10.47
2018-06-18T22:25:05.026Z,9.70
2018-06-18T22:27:33.494Z,10.47
2018-06-18T22:30:02.118Z,10.50
2018-06-18T22:32:30.534Z,10.07
2018-06-18T22:34:58.956Z,9.60
2018-06-18T22:37:27.369Z,10.60
2018-06-18T22:39:55.802Z,9.90
2018-06-18T22:42:24.308Z,9.67
2018-06-18T22:44:52.676Z,9.70
2018-06-18T22:47:21.078Z,10.50
2018-06-18T22:49:49.509Z,10.20
2018-06-18T22:52:18.071Z,10.97
2018-06-18T22:54:48.113Z,10.53
2018-06-18T22:57:16.906Z,11.43
2018-06-18T22:59:46.188Z,10.53
2018-06-18T23:02:17.698Z,11.20
2018-06-18T23:04:46.103Z,10.90
2018-06-18T23:07:14.524Z,10.90
2018-06-18T23:09:42.934Z,11.03
2018-06-18T23:12:11.377Z,11.40
2018-06-18T23:14:39.913Z,10.80
2018-06-18T23:17:08.349Z,11.13
2018-06-18T23:19:36.803Z,11.43
2018-06-18T23:22:05.347Z,11.13
2018-06-18T23:24:33.775Z,11.50
2018-06-18T23:27:02.211Z,12.77
2018-06-18T23:29:30.642Z,11.67
2018-06-18T23:31:59.086Z,12.30
2018-06-18T23:34:27.490Z,11.60
2018-06-18T23:36:55.954Z,11.47
2018-06-18T23:39:24.368Z,11.33
2018-06-18T23:41:54.966Z,13.30
2018-06-18T23:44:23.381Z,12.43
2018-06-18T23:46:51.867Z,13.63
2018-06-18T23:49:20.283Z,12.63
2018-06-18T23:51:48.836Z,12.63
2018-06-18T23:54:17.299Z,12.43
2018-06-18T23:56:45.761Z,13.23
2018-06-18T23:59:14.184Z,13.43
